sensor_id;sensor_type;location;lat;lon;timestamp;temperature;humidity
6724;DHT22;3399;52.530;13.304;2023-04-03T00:00:38;1.20;99.90
6724;DHT22;3399;52.530;13.304;2023-04-03T00:03:04;1.20;99.90
6724;DHT22;3399;52.530;13.304;2023-04-03T00:05:30;1.20;99.90
6724;DHT22;3399;52.530;13.304;2023-04-03T00:07:55;1.20;99.90
6724;DHT22;3399;52.530;13.304;2023-04-03T00:10:21;1.10;99.90
6724;DHT22;3399;52.530;13.304;2023-04-03T00:12:47;1.10;99.90
6724;DHT22;3399;52.530;13.304;2023-04-03T00:15:12;1.10;99.90
6724;DHT22;3399;52.530;13.304;2023-04-03T00:17:38;1.10;99.90
6724;DHT22;3399;52.530;13.304;2023-04-03T00:20:04;1.00;99.90
6724;DHT22;3399;52.530;13.304;2023-04-03T00:22:30;1.00;99.90
6724;DHT22;3399;52.530;13.304;2023-04-03T00:24:55;1.00;99.90
6724;DHT22;3399;52.530;13.304;2023-04-03T00:27:21;1.00;99.90
6724;DHT22;3399;52.530;13.304;2023-04-03T00:29:47;1.00;99.90
6724;DHT22;3399;52.530;13.304;2023-04-03T00:32:13;1.00;99.90
6724;DHT22;3399;52.530;13.304;2023-04-03T00:34:38;1.00;99.90
6724;DHT22;3399;52.530;13.304;2023-04-03T00:37:04;1.00;99.90
6724;DHT22;3399;52.530;13.304;2023-04-03T00:39:30;0.90;99.90
6724;DHT22;3399;52.530;13.304;2023-04-03T00:41:55;0.90;99.90
6724;DHT22;3399;52.530;13.304;2023-04-03T00:46:59;0.80;99.90
6724;DHT22;3399;52.530;13.304;2023-04-03T00:49:26;0.80;99.90
6724;DHT22;3399;52.530;13.304;2023-04-03T00:51:52;0.80;99.90
6724;DHT22;3399;52.530;13.304;2023-04-03T00:54:18;0.70;99.90
6724;DHT22;3399;52.530;13.304;2023-04-03T00:56:44;0.70;99.90
6724;DHT22;3399;52.530;13.304;2023-04-03T00:59:14;0.70;99.90
6724;DHT22;3399;52.530;13.304;2023-04-03T01:01:40;0.70;99.90
6724;DHT22;3399;52.530;13.304;2023-04-03T01:04:24;0.70;99.90
6724;DHT22;3399;52.530;13.304;2023-04-03T01:06:52;0.70;99.90
6724;DHT22;3399;52.530;13.304;2023-04-03T01:09:17;0.70;99.90
6724;DHT22;3399;52.530;13.304;2023-04-03T01:11:43;0.60;99.90
6724;DHT22;3399;52.530;13.304;2023-04-03T01:14:08;0.60;99.90
6724;DHT22;3399;52.530;13.304;2023-04-03T01:16:34;0.60;99.90
6724;DHT22;3399;52.530;13.304;2023-04-03T01:19:01;0.60;99.90
6724;DHT22;3399;52.530;13.304;2023-04-03T01:21:54;0.60;99.90
6724;DHT22;3399;52.530;13.304;2023-04-03T01:24:36;0.60;99.90
6724;DHT22;3399;52.530;13.304;2023-04-03T01:27:06;0.60;99.90
6724;DHT22;3399;52.530;13.304;2023-04-03T01:29:32;0.50;99.90
6724;DHT22;3399;52.530;13.304;2023-04-03T01:32:00;0.50;99.90
6724;DHT22;3399;52.530;13.304;2023-04-03T01:34:27;0.50;99.90
6724;DHT22;3399;52.530;13.304;2023-04-03T01:36:53;0.40;99.90
6724;DHT22;3399;52.530;13.304;2023-04-03T01:39:19;0.50;99.90
6724;DHT22;3399;52.530;13.304;2023-04-03T01:41:45;0.40;99.90
6724;DHT22;3399;52.530;13.304;2023-04-03T01:44:10;0.40;99.90
6724;DHT22;3399;52.530;13.304;2023-04-03T01:46:36;0.40;99.90
6724;DHT22;3399;52.530;13.304;2023-04-03T01:49:03;0.40;99.90
6724;DHT22;3399;52.530;13.304;2023-04-03T01:51:29;0.40;99.90
6724;DHT22;3399;52.530;13.304;2023-04-03T01:53:54;0.40;99.90
6724;DHT22;3399;52.530;13.304;2023-04-03T01:56:20;0.40;99.90
6724;DHT22;3399;52.530;13.304;2023-04-03T01:58:46;0.30;99.90
6724;DHT22;3399;52.530;13.304;2023-04-03T02:01:12;0.30;99.90
6724;DHT22;3399;52.530;13.304;2023-04-03T02:03:37;0.30;99.90
6724;DHT22;3399;52.530;13.304;2023-04-03T02:06:03;0.30;99.90
6724;DHT22;3399;52.530;13.304;2023-04-03T02:08:28;0.30;99.90
6724;DHT22;3399;52.530;13.304;2023-04-03T02:10:54;0.30;99.90
6724;DHT22;3399;52.530;13.304;2023-04-03T02:13:19;0.20;99.90
6724;DHT22;3399;52.530;13.304;2023-04-03T02:15:45;0.30;99.90
6724;DHT22;3399;52.530;13.304;2023-04-03T02:18:11;0.30;99.90
6724;DHT22;3399;52.530;13.304;2023-04-03T02:20:37;0.20;99.90
6724;DHT22;3399;52.530;13.304;2023-04-03T02:23:03;0.20;99.90
6724;DHT22;3399;52.530;13.304;2023-04-03T02:25:30;0.20;99.90
6724;DHT22;3399;52.530;13.304;2023-04-03T02:27:56;0.20;99.90
6724;DHT22;3399;52.530;13.304;2023-04-03T02:30:21;0.20;99.90
6724;DHT22;3399;52.530;13.304;2023-04-03T02:32:47;0.20;99.90
6724;DHT22;3399;52.530;13.304;2023-04-03T02:35:12;0.20;99.90
6724;DHT22;3399;52.530;13.304;2023-04-03T02:37:38;0.10;99.90
6724;DHT22;3399;52.530;13.304;2023-04-03T02:40:04;0.10;99.90
6724;DHT22;3399;52.530;13.304;2023-04-03T02:42:30;0.10;99.90
6724;DHT22;3399;52.530;13.304;2023-04-03T02:44:56;0.10;99.90
6724;DHT22;3399;52.530;13.304;2023-04-03T02:47:22;0.10;99.90
6724;DHT22;3399;52.530;13.304;2023-04-03T02:49:47;0.10;99.90
6724;DHT22;3399;52.530;13.304;2023-04-03T02:52:13;0.00;99.90
6724;DHT22;3399;52.530;13.304;2023-04-03T02:54:39;0.00;99.90
6724;DHT22;3399;52.530;13.304;2023-04-03T02:57:05;0.00;99.90
6724;DHT22;3399;52.530;13.304;2023-04-03T02:59:33;0.00;99.90
6724;DHT22;3399;52.530;13.304;2023-04-03T03:01:58;-0.10;99.90
6724;DHT22;3399;52.530;13.304;2023-04-03T03:04:24;-0.10;99.90
6724;DHT22;3399;52.530;13.304;2023-04-03T03:06:49;0.00;99.90
6724;DHT22;3399;52.530;13.304;2023-04-03T03:09:16;-0.10;99.90
6724;DHT22;3399;52.530;13.304;2023-04-03T03:11:41;-0.10;99.90
6724;DHT22;3399;52.530;13.304;2023-04-03T03:14:07;-0.10;99.90
6724;DHT22;3399;52.530;13.304;2023-04-03T03:16:33;-0.10;99.90
6724;DHT22;3399;52.530;13.304;2023-04-03T03:18:58;-0.10;99.90
6724;DHT22;3399;52.530;13.304;2023-04-03T03:21:24;-0.10;99.90
6724;DHT22;3399;52.530;13.304;2023-04-03T03:23:49;-0.10;99.90
6724;DHT22;3399;52.530;13.304;2023-04-03T03:26:15;-0.20;99.90
6724;DHT22;3399;52.530;13.304;2023-04-03T03:28:40;-0.20;99.90
6724;DHT22;3399;52.530;13.304;2023-04-03T03:31:09;-0.20;99.90
6724;DHT22;3399;52.530;13.304;2023-04-03T03:33:35;-0.20;99.90
6724;DHT22;3399;52.530;13.304;2023-04-03T03:36:01;-0.20;99.90
6724;DHT22;3399;52.530;13.304;2023-04-03T03:38:26;-0.30;99.90
6724;DHT22;3399;52.530;13.304;2023-04-03T03:40:52;-0.30;99.90
6724;DHT22;3399;52.530;13.304;2023-04-03T03:43:18;-0.30;99.90
6724;DHT22;3399;52.530;13.304;2023-04-03T03:45:44;-0.30;99.90
6724;DHT22;3399;52.530;13.304;2023-04-03T03:48:10;-0.30;99.90
6724;DHT22;3399;52.530;13.304;2023-04-03T03:50:36;-0.30;99.90
6724;DHT22;3399;52.530;13.304;2023-04-03T03:53:02;-0.30;99.90
6724;DHT22;3399;52.530;13.304;2023-04-03T03:55:27;-0.20;99.90
6724;DHT22;3399;52.530;13.304;2023-04-03T03:57:53;-0.30;99.90
6724;DHT22;3399;52.530;13.304;2023-04-03T04:00:19;-0.30;99.90
6724;DHT22;3399;52.530;13.304;2023-04-03T04:02:44;-0.40;99.90
6724;DHT22;3399;52.530;13.304;2023-04-03T04:05:11;-0.40;99.90
6724;DHT22;3399;52.530;13.304;2023-04-03T04:07:36;-0.40;99.90
6724;DHT22;3399;52.530;13.304;2023-04-03T04:10:02;-0.30;99.90
6724;DHT22;3399;52.530;13.304;2023-04-03T04:12:28;-0.30;99.90
6724;DHT22;3399;52.530;13.304;2023-04-03T04:14:53;-0.40;99.90
6724;DHT22;3399;52.530;13.304;2023-04-03T04:17:18;-0.50;99.90
6724;DHT22;3399;52.530;13.304;2023-04-03T04:19:45;-0.40;99.90
6724;DHT22;3399;52.530;13.304;2023-04-03T04:22:10;-0.40;99.90
6724;DHT22;3399;52.530;13.304;2023-04-03T04:24:36;-0.40;99.90
6724;DHT22;3399;52.530;13.304;2023-04-03T04:27:01;-0.40;99.90
6724;DHT22;3399;52.530;13.304;2023-04-03T04:29:26;-0.40;99.90
6724;DHT22;3399;52.530;13.304;2023-04-03T04:31:52;-0.40;99.90
6724;DHT22;3399;52.530;13.304;2023-04-03T04:34:17;-0.40;99.90
6724;DHT22;3399;52.530;13.304;2023-04-03T04:36:43;-0.40;99.90
6724;DHT22;3399;52.530;13.304;2023-04-03T04:39:08;-0.40;99.90
6724;DHT22;3399;52.530;13.304;2023-04-03T04:41:34;-0.40;99.90
6724;DHT22;3399;52.530;13.304;2023-04-03T04:44:00;-0.40;99.90
6724;DHT22;3399;52.530;13.304;2023-04-03T04:46:26;-0.40;99.90
6724;DHT22;3399;52.530;13.304;2023-04-03T04:48:52;-0.40;99.90
6724;DHT22;3399;52.530;13.304;2023-04-03T04:51:17;-0.40;99.90
6724;DHT22;3399;52.530;13.304;2023-04-03T04:53:43;-0.40;99.90
6724;DHT22;3399;52.530;13.304;2023-04-03T04:56:09;-0.30;99.90
6724;DHT22;3399;52.530;13.304;2023-04-03T04:58:35;-0.30;99.90
6724;DHT22;3399;52.530;13.304;2023-04-03T05:01:03;-0.30;99.90
6724;DHT22;3399;52.530;13.304;2023-04-03T05:03:28;-0.30;99.90
6724;DHT22;3399;52.530;13.304;2023-04-03T05:05:54;-0.20;99.90
6724;DHT22;3399;52.530;13.304;2023-04-03T05:08:20;-0.20;99.90
6724;DHT22;3399;52.530;13.304;2023-04-03T05:10:46;-0.10;99.90
6724;DHT22;3399;52.530;13.304;2023-04-03T05:13:12;-0.10;99.90
6724;DHT22;3399;52.530;13.304;2023-04-03T05:15:38;-0.20;99.90
6724;DHT22;3399;52.530;13.304;2023-04-03T05:18:03;-0.10;99.90
6724;DHT22;3399;52.530;13.304;2023-04-03T05:20:30;-0.10;99.90
6724;DHT22;3399;52.530;13.304;2023-04-03T05:22:56;-0.10;99.90
6724;DHT22;3399;52.530;13.304;2023-04-03T05:25:21;0.00;99.90
6724;DHT22;3399;52.530;13.304;2023-04-03T05:27:47;0.00;99.90
6724;DHT22;3399;52.530;13.304;2023-04-03T05:30:12;-0.10;99.90
6724;DHT22;3399;52.530;13.304;2023-04-03T05:32:38;0.00;99.90
6724;DHT22;3399;52.530;13.304;2023-04-03T05:35:04;-0.10;99.90
6724;DHT22;3399;52.530;13.304;2023-04-03T05:37:31;-0.10;99.90
6724;DHT22;3399;52.530;13.304;2023-04-03T05:39:56;0.10;99.90
6724;DHT22;3399;52.530;13.304;2023-04-03T05:42:22;0.20;99.90
6724;DHT22;3399;52.530;13.304;2023-04-03T05:44:47;0.30;99.90
6724;DHT22;3399;52.530;13.304;2023-04-03T05:47:14;0.20;99.90
6724;DHT22;3399;52.530;13.304;2023-04-03T05:49:39;0.30;99.90
6724;DHT22;3399;52.530;13.304;2023-04-03T05:52:18;0.20;99.90
6724;DHT22;3399;52.530;13.304;2023-04-03T05:54:45;0.30;99.90
6724;DHT22;3399;52.530;13.304;2023-04-03T05:57:13;0.40;99.90
6724;DHT22;3399;52.530;13.304;2023-04-03T05:59:39;0.50;99.90
6724;DHT22;3399;52.530;13.304;2023-04-03T06:02:05;0.60;99.90
6724;DHT22;3399;52.530;13.304;2023-04-03T06:04:31;0.80;99.90
6724;DHT22;3399;52.530;13.304;2023-04-03T06:06:57;0.80;99.90
6724;DHT22;3399;52.530;13.304;2023-04-03T06:09:26;0.90;99.90
6724;DHT22;3399;52.530;13.304;2023-04-03T06:11:52;0.90;99.90
6724;DHT22;3399;52.530;13.304;2023-04-03T06:14:18;1.00;99.90
6724;DHT22;3399;52.530;13.304;2023-04-03T06:16:44;1.10;99.90
6724;DHT22;3399;52.530;13.304;2023-04-03T06:19:10;1.20;99.90
6724;DHT22;3399;52.530;13.304;2023-04-03T06:21:36;1.30;99.90
6724;DHT22;3399;52.530;13.304;2023-04-03T06:24:03;1.30;99.90
6724;DHT22;3399;52.530;13.304;2023-04-03T06:26:29;1.30;99.90
6724;DHT22;3399;52.530;13.304;2023-04-03T06:28:54;1.40;99.90
6724;DHT22;3399;52.530;13.304;2023-04-03T06:31:20;1.50;99.90
6724;DHT22;3399;52.530;13.304;2023-04-03T06:33:45;1.50;99.90
6724;DHT22;3399;52.530;13.304;2023-04-03T06:36:11;1.60;99.90
6724;DHT22;3399;52.530;13.304;2023-04-03T06:38:37;1.60;99.90
6724;DHT22;3399;52.530;13.304;2023-04-03T06:41:03;1.80;99.90
6724;DHT22;3399;52.530;13.304;2023-04-03T06:43:29;1.80;99.90
6724;DHT22;3399;52.530;13.304;2023-04-03T06:45:56;1.80;99.90
6724;DHT22;3399;52.530;13.304;2023-04-03T06:48:22;1.90;99.90
6724;DHT22;3399;52.530;13.304;2023-04-03T06:50:48;2.00;99.90
6724;DHT22;3399;52.530;13.304;2023-04-03T06:53:14;2.10;99.90
6724;DHT22;3399;52.530;13.304;2023-04-03T06:55:39;2.20;99.90
6724;DHT22;3399;52.530;13.304;2023-04-03T06:58:05;2.30;99.90
6724;DHT22;3399;52.530;13.304;2023-04-03T07:00:30;2.40;99.90
6724;DHT22;3399;52.530;13.304;2023-04-03T07:02:56;2.50;99.90
6724;DHT22;3399;52.530;13.304;2023-04-03T07:05:23;2.60;99.90
6724;DHT22;3399;52.530;13.304;2023-04-03T07:07:49;2.50;99.90
6724;DHT22;3399;52.530;13.304;2023-04-03T07:10:15;2.60;99.90
6724;DHT22;3399;52.530;13.304;2023-04-03T07:12:40;2.60;99.90
6724;DHT22;3399;52.530;13.304;2023-04-03T07:15:07;2.70;99.90
6724;DHT22;3399;52.530;13.304;2023-04-03T07:17:33;2.80;99.90
6724;DHT22;3399;52.530;13.304;2023-04-03T07:19:59;3.10;99.90
6724;DHT22;3399;52.530;13.304;2023-04-03T07:22:24;3.10;99.90
6724;DHT22;3399;52.530;13.304;2023-04-03T07:24:50;3.00;99.90
6724;DHT22;3399;52.530;13.304;2023-04-03T07:27:16;3.00;99.90
6724;DHT22;3399;52.530;13.304;2023-04-03T07:29:43;3.00;99.90
6724;DHT22;3399;52.530;13.304;2023-04-03T07:32:09;3.00;99.90
6724;DHT22;3399;52.530;13.304;2023-04-03T07:34:36;3.00;99.90
6724;DHT22;3399;52.530;13.304;2023-04-03T07:37:02;3.00;99.90
6724;DHT22;3399;52.530;13.304;2023-04-03T07:39:28;2.90;99.90
6724;DHT22;3399;52.530;13.304;2023-04-03T07:41:54;3.00;99.90
6724;DHT22;3399;52.530;13.304;2023-04-03T07:44:20;3.10;99.90
6724;DHT22;3399;52.530;13.304;2023-04-03T07:46:46;3.30;99.90
6724;DHT22;3399;52.530;13.304;2023-04-03T07:49:12;3.20;98.50
6724;DHT22;3399;52.530;13.304;2023-04-03T07:51:37;3.20;98.60
6724;DHT22;3399;52.530;13.304;2023-04-03T07:54:03;3.40;98.70
6724;DHT22;3399;52.530;13.304;2023-04-03T07:56:29;3.70;98.00
6724;DHT22;3399;52.530;13.304;2023-04-03T07:58:54;3.90;97.90
6724;DHT22;3399;52.530;13.304;2023-04-03T08:01:20;4.00;97.10
6724;DHT22;3399;52.530;13.304;2023-04-03T08:03:46;4.10;96.20
6724;DHT22;3399;52.530;13.304;2023-04-03T08:06:11;4.10;95.90
6724;DHT22;3399;52.530;13.304;2023-04-03T08:08:38;4.20;97.70
6724;DHT22;3399;52.530;13.304;2023-04-03T08:11:04;4.50;95.90
6724;DHT22;3399;52.530;13.304;2023-04-03T08:13:31;4.60;94.80
6724;DHT22;3399;52.530;13.304;2023-04-03T08:15:57;4.70;95.30
6724;DHT22;3399;52.530;13.304;2023-04-03T08:18:24;4.90;95.00
6724;DHT22;3399;52.530;13.304;2023-04-03T08:20:51;4.90;93.40
6724;DHT22;3399;52.530;13.304;2023-04-03T08:23:18;5.10;93.60
6724;DHT22;3399;52.530;13.304;2023-04-03T08:25:44;5.10;93.70
6724;DHT22;3399;52.530;13.304;2023-04-03T08:28:11;4.80;93.20
6724;DHT22;3399;52.530;13.304;2023-04-03T08:30:40;4.90;93.20
6724;DHT22;3399;52.530;13.304;2023-04-03T08:33:07;4.90;93.60
6724;DHT22;3399;52.530;13.304;2023-04-03T08:35:33;4.80;92.30
6724;DHT22;3399;52.530;13.304;2023-04-03T08:38:02;4.50;91.80
6724;DHT22;3399;52.530;13.304;2023-04-03T08:40:28;4.50;92.70
6724;DHT22;3399;52.530;13.304;2023-04-03T08:43:00;4.70;92.60
6724;DHT22;3399;52.530;13.304;2023-04-03T08:45:53;4.60;92.40
6724;DHT22;3399;52.530;13.304;2023-04-03T08:48:24;4.40;92.40
6724;DHT22;3399;52.530;13.304;2023-04-03T08:50:55;4.60;92.80
6724;DHT22;3399;52.530;13.304;2023-04-03T08:53:26;4.70;92.60
6724;DHT22;3399;52.530;13.304;2023-04-03T08:55:54;4.50;93.00
6724;DHT22;3399;52.530;13.304;2023-04-03T08:58:26;4.40;93.40
6724;DHT22;3399;52.530;13.304;2023-04-03T09:00:58;4.40;93.20
6724;DHT22;3399;52.530;13.304;2023-04-03T09:03:24;4.40;92.90
6724;DHT22;3399;52.530;13.304;2023-04-03T09:05:57;4.30;92.90
6724;DHT22;3399;52.530;13.304;2023-04-03T09:08:49;4.40;93.00
6724;DHT22;3399;52.530;13.304;2023-04-03T09:11:25;4.60;92.20
6724;DHT22;3399;52.530;13.304;2023-04-03T09:13:59;4.50;91.60
6724;DHT22;3399;52.530;13.304;2023-04-03T09:16:57;4.40;92.10
6724;DHT22;3399;52.530;13.304;2023-04-03T09:21:57;4.50;91.60
6724;DHT22;3399;52.530;13.304;2023-04-03T09:24:23;4.60;91.60
6724;DHT22;3399;52.530;13.304;2023-04-03T09:26:58;5.00;92.00
6724;DHT22;3399;52.530;13.304;2023-04-03T09:29:25;5.30;91.50
6724;DHT22;3399;52.530;13.304;2023-04-03T09:32:00;5.50;91.10
6724;DHT22;3399;52.530;13.304;2023-04-03T09:34:28;5.40;90.50
6724;DHT22;3399;52.530;13.304;2023-04-03T09:36:56;5.20;90.60
6724;DHT22;3399;52.530;13.304;2023-04-03T09:39:25;5.30;90.70
6724;DHT22;3399;52.530;13.304;2023-04-03T09:42:04;5.50;90.00
6724;DHT22;3399;52.530;13.304;2023-04-03T09:46:58;6.10;90.00
6724;DHT22;3399;52.530;13.304;2023-04-03T09:49:24;6.50;88.30
6724;DHT22;3399;52.530;13.304;2023-04-03T09:51:50;6.50;83.70
6724;DHT22;3399;52.530;13.304;2023-04-03T09:54:34;6.20;83.30
6724;DHT22;3399;52.530;13.304;2023-04-03T09:57:11;6.20;84.60
6724;DHT22;3399;52.530;13.304;2023-04-03T09:59:44;6.50;83.50
6724;DHT22;3399;52.530;13.304;2023-04-03T10:02:21;6.70;80.70
6724;DHT22;3399;52.530;13.304;2023-04-03T10:04:47;6.40;81.20
6724;DHT22;3399;52.530;13.304;2023-04-03T10:07:36;6.20;82.20
6724;DHT22;3399;52.530;13.304;2023-04-03T10:12:40;6.40;80.60
6724;DHT22;3399;52.530;13.304;2023-04-03T10:15:15;6.30;81.90
6724;DHT22;3399;52.530;13.304;2023-04-03T10:17:57;6.30;81.40
6724;DHT22;3399;52.530;13.304;2023-04-03T10:31:40;6.10;77.40
6724;DHT22;3399;52.530;13.304;2023-04-03T10:42:50;6.50;76.00
6724;DHT22;3399;52.530;13.304;2023-04-03T10:45:48;6.70;73.40
6724;DHT22;3399;52.530;13.304;2023-04-03T10:54:11;7.30;72.30
6724;DHT22;3399;52.530;13.304;2023-04-03T10:56:53;7.20;70.90
6724;DHT22;3399;52.530;13.304;2023-04-03T10:59:46;6.90;70.70
6724;DHT22;3399;52.530;13.304;2023-04-03T11:02:22;6.60;71.80
6724;DHT22;3399;52.530;13.304;2023-04-03T11:04:53;6.80;71.60
6724;DHT22;3399;52.530;13.304;2023-04-03T11:07:23;7.30;70.60
6724;DHT22;3399;52.530;13.304;2023-04-03T11:09:56;7.60;70.90
6724;DHT22;3399;52.530;13.304;2023-04-03T11:12:25;7.20;71.80
6724;DHT22;3399;52.530;13.304;2023-04-03T11:14:53;6.80;70.70
6724;DHT22;3399;52.530;13.304;2023-04-03T11:17:35;6.60;71.60
6724;DHT22;3399;52.530;13.304;2023-04-03T11:20:13;6.60;73.10
6724;DHT22;3399;52.530;13.304;2023-04-03T11:22:47;6.40;73.10
6724;DHT22;3399;52.530;13.304;2023-04-03T11:25:19;6.50;74.80
6724;DHT22;3399;52.530;13.304;2023-04-03T11:27:56;6.60;75.40
6724;DHT22;3399;52.530;13.304;2023-04-03T11:35:32;6.80;72.80
6724;DHT22;3399;52.530;13.304;2023-04-03T11:38:00;7.00;73.80
6724;DHT22;3399;52.530;13.304;2023-04-03T11:40:35;6.80;74.50
6724;DHT22;3399;52.530;13.304;2023-04-03T11:43:25;6.40;74.20
6724;DHT22;3399;52.530;13.304;2023-04-03T11:51:01;6.20;74.80
6724;DHT22;3399;52.530;13.304;2023-04-03T11:53:32;6.20;75.00
6724;DHT22;3399;52.530;13.304;2023-04-03T11:56:27;6.30;75.50
6724;DHT22;3399;52.530;13.304;2023-04-03T12:01:46;6.30;76.90
6724;DHT22;3399;52.530;13.304;2023-04-03T12:04:13;6.10;78.80
6724;DHT22;3399;52.530;13.304;2023-04-03T12:12:25;6.30;77.20
6724;DHT22;3399;52.530;13.304;2023-04-03T12:14:52;6.60;76.80
6724;DHT22;3399;52.530;13.304;2023-04-03T12:17:23;7.00;77.50
6724;DHT22;3399;52.530;13.304;2023-04-03T12:19:51;7.10;76.70
6724;DHT22;3399;52.530;13.304;2023-04-03T12:22:19;7.20;77.00
6724;DHT22;3399;52.530;13.304;2023-04-03T12:24:48;7.20;75.50
6724;DHT22;3399;52.530;13.304;2023-04-03T12:27:23;6.90;76.70
6724;DHT22;3399;52.530;13.304;2023-04-03T12:32:58;7.10;75.60
6724;DHT22;3399;52.530;13.304;2023-04-03T12:38:26;7.10;77.90
6724;DHT22;3399;52.530;13.304;2023-04-03T12:41:37;7.10;77.00
6724;DHT22;3399;52.530;13.304;2023-04-03T12:46:54;6.80;73.60
6724;DHT22;3399;52.530;13.304;2023-04-03T12:51:54;6.90;75.80
6724;DHT22;3399;52.530;13.304;2023-04-03T12:54:23;7.10;74.50
6724;DHT22;3399;52.530;13.304;2023-04-03T12:56:51;7.60;70.60
6724;DHT22;3399;52.530;13.304;2023-04-03T12:59:20;8.70;68.90
6724;DHT22;3399;52.530;13.304;2023-04-03T13:01:54;9.00;69.30
6724;DHT22;3399;52.530;13.304;2023-04-03T13:04:20;8.50;65.80
6724;DHT22;3399;52.530;13.304;2023-04-03T13:06:46;8.10;67.80
6724;DHT22;3399;52.530;13.304;2023-04-03T13:09:23;7.60;70.00
6724;DHT22;3399;52.530;13.304;2023-04-03T13:11:55;7.10;71.70
6724;DHT22;3399;52.530;13.304;2023-04-03T13:14:24;6.80;73.50
6724;DHT22;3399;52.530;13.304;2023-04-03T13:17:10;6.80;73.30
6724;DHT22;3399;52.530;13.304;2023-04-03T13:19:37;6.60;74.50
6724;DHT22;3399;52.530;13.304;2023-04-03T13:24:46;6.50;74.90
6724;DHT22;3399;52.530;13.304;2023-04-03T13:27:14;6.40;75.50
6724;DHT22;3399;52.530;13.304;2023-04-03T13:29:40;6.40;77.00
6724;DHT22;3399;52.530;13.304;2023-04-03T13:32:06;6.50;78.40
6724;DHT22;3399;52.530;13.304;2023-04-03T13:34:38;6.40;77.60
6724;DHT22;3399;52.530;13.304;2023-04-03T13:37:06;6.40;77.00
6724;DHT22;3399;52.530;13.304;2023-04-03T13:39:38;6.60;78.90
6724;DHT22;3399;52.530;13.304;2023-04-03T13:42:22;6.90;77.40
6724;DHT22;3399;52.530;13.304;2023-04-03T13:44:48;7.00;77.20
6724;DHT22;3399;52.530;13.304;2023-04-03T13:47:18;7.10;75.80
6724;DHT22;3399;52.530;13.304;2023-04-03T13:49:59;7.00;74.60
6724;DHT22;3399;52.530;13.304;2023-04-03T13:52:29;6.90;76.20
6724;DHT22;3399;52.530;13.304;2023-04-03T13:54:59;6.90;76.50
6724;DHT22;3399;52.530;13.304;2023-04-03T13:57:26;6.60;76.30
6724;DHT22;3399;52.530;13.304;2023-04-03T13:59:52;6.30;75.70
6724;DHT22;3399;52.530;13.304;2023-04-03T14:02:28;6.10;76.50
6724;DHT22;3399;52.530;13.304;2023-04-03T14:04:57;6.10;78.70
6724;DHT22;3399;52.530;13.304;2023-04-03T14:07:24;6.10;77.90
6724;DHT22;3399;52.530;13.304;2023-04-03T14:09:50;6.10;76.40
6724;DHT22;3399;52.530;13.304;2023-04-03T14:12:33;6.20;76.90
6724;DHT22;3399;52.530;13.304;2023-04-03T14:15:06;6.10;77.60
6724;DHT22;3399;52.530;13.304;2023-04-03T14:17:37;6.00;77.80
6724;DHT22;3399;52.530;13.304;2023-04-03T14:20:03;6.00;78.90
6724;DHT22;3399;52.530;13.304;2023-04-03T14:22:31;6.10;79.20
6724;DHT22;3399;52.530;13.304;2023-04-03T14:24:57;6.00;79.20
6724;DHT22;3399;52.530;13.304;2023-04-03T14:27:29;6.00;79.20
6724;DHT22;3399;52.530;13.304;2023-04-03T14:29:57;6.10;79.20
6724;DHT22;3399;52.530;13.304;2023-04-03T14:32:23;6.30;78.70
6724;DHT22;3399;52.530;13.304;2023-04-03T14:34:51;6.40;78.10
6724;DHT22;3399;52.530;13.304;2023-04-03T14:37:19;6.50;77.40
6724;DHT22;3399;52.530;13.304;2023-04-03T14:39:46;6.70;76.60
6724;DHT22;3399;52.530;13.304;2023-04-03T14:42:15;6.70;76.70
6724;DHT22;3399;52.530;13.304;2023-04-03T14:44:42;6.70;78.10
6724;DHT22;3399;52.530;13.304;2023-04-03T14:47:12;8.20;78.50
6724;DHT22;3399;52.530;13.304;2023-04-03T14:49:40;9.90;70.70
6724;DHT22;3399;52.530;13.304;2023-04-03T14:52:18;9.80;68.00
6724;DHT22;3399;52.530;13.304;2023-04-03T14:54:44;8.90;69.90
6724;DHT22;3399;52.530;13.304;2023-04-03T14:57:11;8.40;72.60
6724;DHT22;3399;52.530;13.304;2023-04-03T14:59:38;7.80;73.40
6724;DHT22;3399;52.530;13.304;2023-04-03T15:02:32;7.40;76.70
6724;DHT22;3399;52.530;13.304;2023-04-03T15:04:59;6.80;77.50
6724;DHT22;3399;52.530;13.304;2023-04-03T15:07:27;6.30;79.00
6724;DHT22;3399;52.530;13.304;2023-04-03T15:09:54;5.90;79.90
6724;DHT22;3399;52.530;13.304;2023-04-03T15:12:22;5.90;82.30
6724;DHT22;3399;52.530;13.304;2023-04-03T15:14:48;5.90;84.60
6724;DHT22;3399;52.530;13.304;2023-04-03T15:17:21;5.90;83.40
6724;DHT22;3399;52.530;13.304;2023-04-03T15:19:47;5.90;82.10
6724;DHT22;3399;52.530;13.304;2023-04-03T15:22:15;5.60;84.50
6724;DHT22;3399;52.530;13.304;2023-04-03T15:24:42;5.60;86.20
6724;DHT22;3399;52.530;13.304;2023-04-03T15:27:09;5.50;86.50
6724;DHT22;3399;52.530;13.304;2023-04-03T15:29:34;5.50;86.70
6724;DHT22;3399;52.530;13.304;2023-04-03T15:32:00;5.40;88.70
6724;DHT22;3399;52.530;13.304;2023-04-03T15:34:26;5.40;88.10
6724;DHT22;3399;52.530;13.304;2023-04-03T15:36:51;5.30;88.60
6724;DHT22;3399;52.530;13.304;2023-04-03T15:39:17;5.20;90.00
6724;DHT22;3399;52.530;13.304;2023-04-03T15:41:44;5.30;90.10
6724;DHT22;3399;52.530;13.304;2023-04-03T15:44:10;5.30;90.10
6724;DHT22;3399;52.530;13.304;2023-04-03T15:46:37;5.40;90.10
6724;DHT22;3399;52.530;13.304;2023-04-03T15:49:04;5.30;90.30
6724;DHT22;3399;52.530;13.304;2023-04-03T15:51:30;5.20;89.90
6724;DHT22;3399;52.530;13.304;2023-04-03T15:53:55;5.20;89.60
6724;DHT22;3399;52.530;13.304;2023-04-03T15:56:21;5.20;89.90
6724;DHT22;3399;52.530;13.304;2023-04-03T15:58:50;5.20;89.60
6724;DHT22;3399;52.530;13.304;2023-04-03T16:01:15;5.10;89.70
6724;DHT22;3399;52.530;13.304;2023-04-03T16:03:42;5.00;90.00
6724;DHT22;3399;52.530;13.304;2023-04-03T16:06:15;5.10;90.30
6724;DHT22;3399;52.530;13.304;2023-04-03T16:08:42;5.10;88.90
6724;DHT22;3399;52.530;13.304;2023-04-03T16:11:08;5.10;89.70
6724;DHT22;3399;52.530;13.304;2023-04-03T16:13:34;5.10;90.00
6724;DHT22;3399;52.530;13.304;2023-04-03T16:16:00;5.20;90.60
6724;DHT22;3399;52.530;13.304;2023-04-03T16:18:27;5.10;90.80
6724;DHT22;3399;52.530;13.304;2023-04-03T16:20:53;5.00;91.50
6724;DHT22;3399;52.530;13.304;2023-04-03T16:23:19;4.90;91.60
6724;DHT22;3399;52.530;13.304;2023-04-03T16:25:45;4.90;91.40
6724;DHT22;3399;52.530;13.304;2023-04-03T16:28:12;5.10;92.40
6724;DHT22;3399;52.530;13.304;2023-04-03T16:30:40;5.30;91.80
6724;DHT22;3399;52.530;13.304;2023-04-03T16:33:06;5.60;91.20
6724;DHT22;3399;52.530;13.304;2023-04-03T16:35:32;5.90;90.80
6724;DHT22;3399;52.530;13.304;2023-04-03T16:37:57;5.90;90.60
6724;DHT22;3399;52.530;13.304;2023-04-03T16:40:23;5.90;90.50
6724;DHT22;3399;52.530;13.304;2023-04-03T16:42:48;5.70;91.00
6724;DHT22;3399;52.530;13.304;2023-04-03T16:45:14;5.60;91.80
6724;DHT22;3399;52.530;13.304;2023-04-03T16:47:40;5.60;92.00
6724;DHT22;3399;52.530;13.304;2023-04-03T16:50:05;5.40;92.00
6724;DHT22;3399;52.530;13.304;2023-04-03T16:52:31;5.30;92.10
6724;DHT22;3399;52.530;13.304;2023-04-03T16:54:57;5.10;91.60
6724;DHT22;3399;52.530;13.304;2023-04-03T16:57:24;5.00;92.50
6724;DHT22;3399;52.530;13.304;2023-04-03T16:59:50;4.90;93.40
6724;DHT22;3399;52.530;13.304;2023-04-03T17:02:16;4.80;93.80
6724;DHT22;3399;52.530;13.304;2023-04-03T17:04:41;4.70;93.90
6724;DHT22;3399;52.530;13.304;2023-04-03T17:07:07;4.70;93.80
6724;DHT22;3399;52.530;13.304;2023-04-03T17:09:33;4.70;94.30
6724;DHT22;3399;52.530;13.304;2023-04-03T17:11:59;4.60;94.20
6724;DHT22;3399;52.530;13.304;2023-04-03T17:14:24;4.60;94.50